Airport View

Enter AWOS ICAO identifier for current METAR.

ex. KFNL

KGCD 191855Z AUTO 28015G22KT 10SM CLR 20/M04 A3010 RMK AO2 T02011039

19 Jun 2019 18:58

Frequency: 118.375

Phone: 541-575-1122

Other Area AWOS: KBNO - KBKE - KLGD - KMEH

TAF KBNO 191720Z 1918/2018 29015G25KT P6SM SKC FM192000 28020G28KT P6SM SKC FM200400 27012KT P6SM SKC FM201600 27020G28KT P6SM SCT150